Time;durP1;ratioP1;P1;durP2;ratioP2;P2;SDS_P1;SDS_P2;PMS_P1;PMS_P2;Temp;Humidity;BMP_temperature;BMP_pressure;BME280_temperature;BME280_humidity;BME280_pressure;Samples;Min_cycle;Max_cycle;Signal;HPM_P1;HPM_P2
2022/03/22 00:00:34;;;;;;;20.00;18.50;;;;;;;22.33;23.89;96460.97;6172511;28;103330;-46
2022/03/22 00:03:36;;;;;;;19.10;17.50;;;;;;;22.28;23.88;96458.31;6175664;28;102999;-46
2022/03/22 00:06:38;;;;;;;18.27;16.80;;;;;;;22.32;23.90;96467.38;6180381;28;102818;-47
2022/03/22 00:09:40;;;;;;;19.43;17.83;;;;;;;22.33;23.95;96463.63;6183325;28;103336;-47
2022/03/22 00:12:42;;;;;;;18.20;16.70;;;;;;;22.30;24.03;96450.84;6157138;28;104635;-46
2022/03/22 00:15:44;;;;;;;18.63;17.03;;;;;;;22.31;23.98;96454.31;6180591;28;102799;-47
2022/03/22 00:19:06;;;;;;;18.10;16.60;;;;;;;22.28;24.01;96442.34;6183141;28;102795;-47
2022/03/22 00:22:09;;;;;;;17.90;16.50;;;;;;;22.28;24.07;96442.34;6176390;28;103240;-46
2022/03/22 00:25:14;;;;;;;16.80;15.50;;;;;;;22.28;23.99;96445.00;6194265;28;102883;-47
2022/03/22 00:28:16;;;;;;;17.10;15.70;;;;;;;22.26;24.04;96435.69;6166649;28;103540;-47
2022/03/22 00:31:18;;;;;;;16.67;15.37;;;;;;;22.27;24.01;96437.28;6160791;28;102800;-47
2022/03/22 00:34:20;;;;;;;16.67;15.27;;;;;;;22.27;24.09;96442.63;6153184;28;102838;-46
2022/03/22 00:37:22;;;;;;;15.93;14.53;;;;;;;22.27;23.81;96446.06;6177195;28;102832;-47
2022/03/22 00:40:25;;;;;;;15.10;13.80;;;;;;;22.26;23.98;96441.81;6159977;28;102811;-47
2022/03/22 00:43:27;;;;;;;16.23;14.93;;;;;;;22.26;23.85;96444.47;6167313;28;103147;-47
2022/03/22 00:46:28;;;;;;;15.40;14.20;;;;;;;22.26;23.92;96443.69;6152124;28;102787;-47
2022/03/22 00:49:32;;;;;;;14.67;13.47;;;;;;;22.25;23.82;96440.22;6157691;28;103176;-47
2022/03/22 00:52:35;;;;;;;15.33;14.13;;;;;;;22.26;24.03;96436.50;6158775;28;104655;-47
2022/03/22 00:55:40;;;;;;;14.57;13.40;;;;;;;22.19;23.75;96422.66;6163208;28;103343;-47
2022/03/22 00:58:41;;;;;;;14.33;13.20;;;;;;;22.24;24.17;96451.13;6163586;28;103263;-47
2022/03/22 01:01:43;;;;;;;13.40;12.30;;;;;;;22.26;24.02;96431.16;6175515;28;103302;-47
2022/03/22 01:04:45;;;;;;;12.40;11.37;;;;;;;22.27;23.94;96424.78;6166775;28;103046;-47
2022/03/22 01:07:50;;;;;;;12.13;11.23;;;;;;;22.26;23.99;96428.50;6151416;28;104339;-47
2022/03/22 01:10:52;;;;;;;12.97;11.97;;;;;;;22.26;23.79;96417.84;6162398;28;103143;-47
2022/03/22 01:13:55;;;;;;;11.40;10.50;;;;;;;22.29;23.78;96432.50;6169103;28;103209;-47
2022/03/22 01:16:57;;;;;;;11.67;10.67;;;;;;;22.22;24.03;96427.44;6163272;28;102748;-46
2022/03/22 01:20:05;;;;;;;11.20;10.30;;;;;;;22.24;23.82;96419.97;6181186;28;102819;-47
2022/03/22 01:23:08;;;;;;;11.10;10.20;;;;;;;22.27;23.76;96431.97;6158410;28;103297;-47
2022/03/22 01:26:10;;;;;;;11.47;10.57;;;;;;;22.25;24.13;96426.91;6157748;28;103572;-47
2022/03/22 01:29:12;;;;;;;9.87;9.07;;;;;;;22.22;23.97;96406.16;6150057;28;102853;-46
2022/03/22 01:32:15;;;;;;;9.90;9.10;;;;;;;22.25;24.36;96408.28;6173933;28;102842;-47
2022/03/22 01:35:18;;;;;;;10.90;9.60;;;;;;;22.23;24.04;96407.75;6179065;28;103366;-46
2022/03/22 01:38:22;;;;;;;10.43;9.63;;;;;;;22.23;23.83;96413.06;6181329;28;102775;-47
2022/03/22 01:41:24;;;;;;;10.27;9.37;;;;;;;22.23;23.79;96405.06;6165848;28;103174;-47
2022/03/22 01:44:26;;;;;;;10.57;9.77;;;;;;;22.23;24.01;96409.59;6166186;28;103658;-47
2022/03/22 01:47:28;;;;;;;9.80;9.00;;;;;;;22.22;23.96;96406.16;6161786;28;102803;-47
2022/03/22 01:50:30;;;;;;;9.97;9.17;;;;;;;22.20;23.95;96398.44;6166412;28;102831;-47
2022/03/22 01:53:36;;;;;;;10.00;9.23;;;;;;;22.13;23.91;96384.56;6185138;28;104587;-47
2022/03/22 01:56:37;;;;;;;10.43;9.53;;;;;;;22.22;23.58;96411.47;6180169;28;103177;-46
2022/03/22 01:59:39;;;;;;;10.17;9.37;;;;;;;22.20;23.89;96402.94;6174681;28;103060;-47
2022/03/22 02:06:06;;;;;;;10.77;9.87;;;;;;;22.20;23.70;96398.44;6184482;28;102745;-47
2022/03/22 02:09:08;;;;;;;9.97;9.17;;;;;;;22.19;23.63;96390.72;6171145;28;102857;-47
2022/03/22 02:12:10;;;;;;;10.13;9.23;;;;;;;22.19;23.75;96399.50;6162598;28;102929;-46
2022/03/22 02:15:12;;;;;;;10.03;9.23;;;;;;;22.20;23.63;96400.28;6165242;28;102909;-47
2022/03/22 02:18:15;;;;;;;10.20;9.40;;;;;;;22.19;23.72;96388.03;6161486;28;103246;-46
2022/03/22 02:21:19;;;;;;;9.90;9.10;;;;;;;22.18;23.61;96387.25;6162558;28;102843;-47
2022/03/22 02:24:21;;;;;;;10.90;10.00;;;;;;;22.19;23.63;96388.84;6177950;28;102825;-46
2022/03/22 02:27:28;;;;;;;9.80;8.90;;;;;;;22.19;23.79;96388.84;6186696;28;102718;-47
2022/03/22 02:30:30;;;;;;;9.77;8.87;;;;;;;22.14;23.66;96388.03;6160250;28;102728;-47
2022/03/22 02:33:32;;;;;;;9.90;9.10;;;;;;;22.18;24.02;96384.59;6160472;28;103507;-46
2022/03/22 02:36:34;;;;;;;9.10;8.40;;;;;;;22.15;23.85;96377.09;6155120;28;102784;-47
2022/03/22 02:39:36;;;;;;;10.47;9.63;;;;;;;22.13;23.79;96383.78;6163900;28;103500;-46
2022/03/22 02:42:37;;;;;;;9.77;8.97;;;;;;;22.16;23.75;96386.69;6176752;28;102904;-46
2022/03/22 02:45:39;;;;;;;9.83;9.03;;;;;;;22.17;23.78;96393.63;6179271;28;102751;-46
2022/03/22 02:48:42;;;;;;;9.00;8.20;;;;;;;22.12;23.54;96369.66;6180288;28;103316;-47
2022/03/22 02:51:43;;;;;;;9.73;8.80;;;;;;;22.15;23.81;96378.97;6182853;28;102796;-47
2022/03/22 02:54:45;;;;;;;9.70;8.90;;;;;;;22.11;23.85;96385.91;6178036;28;102778;-47
2022/03/22 02:57:47;;;;;;;8.93;8.23;;;;;;;22.14;23.78;96396.81;6159064;28;103330;-47
2022/03/22 03:00:49;;;;;;;9.57;8.60;;;;;;;22.15;23.63;96393.09;6170902;28;103767;-47
2022/03/22 03:03:52;;;;;;;10.07;9.27;;;;;;;22.10;23.80;96387.75;6182748;28;103054;-46
2022/03/22 03:06:53;;;;;;;8.83;8.13;;;;;;;22.15;23.90;96395.75;6183046;28;103524;-47
2022/03/22 03:09:55;;;;;;;9.43;8.67;;;;;;;22.16;23.86;96407.19;6155731;28;104049;-47
2022/03/22 03:12:59;;;;;;;9.20;8.40;;;;;;;22.15;23.90;96394.94;6183894;28;102742;-47
2022/03/22 03:16:01;;;;;;;9.27;8.53;;;;;;;22.14;23.72;96388.81;6165007;28;104435;-47
2022/03/22 03:19:03;;;;;;;9.90;9.10;;;;;;;22.13;23.65;96394.41;6146431;28;102770;-47
2022/03/22 03:22:05;;;;;;;10.57;9.70;;;;;;;22.09;23.90;96385.38;6178828;28;103016;-47
2022/03/22 03:25:08;;;;;;;9.13;8.33;;;;;;;22.13;23.83;96383.78;6181410;28;103042;-47
2022/03/22 03:28:10;;;;;;;8.80;8.10;;;;;;;22.13;23.65;96391.75;6168523;28;102948;-47
2022/03/22 03:31:12;;;;;;;11.10;10.10;;;;;;;22.12;24.01;96393.63;6159276;28;103875;-47
2022/03/22 03:34:13;;;;;;;9.77;8.97;;;;;;;22.07;23.98;96382.97;6181764;28;103310;-46
2022/03/22 03:37:16;;;;;;;10.53;9.70;;;;;;;22.06;24.02;96393.91;6141159;28;102812;-47
2022/03/22 03:40:18;;;;;;;9.80;9.00;;;;;;;22.09;23.76;96398.69;6161796;28;102990;-47
2022/03/22 03:43:20;;;;;;;10.27;9.47;;;;;;;22.06;23.78;96383.25;6174224;28;103242;-47
2022/03/22 03:49:50;;;;;;;10.63;9.73;;;;;;;22.07;23.90;96376.84;6169664;28;103422;-47
2022/03/22 03:52:52;;;;;;;11.40;10.50;;;;;;;22.08;23.93;96378.47;6158724;28;103887;-47
2022/03/22 03:55:54;;;;;;;11.67;10.67;;;;;;;22.11;24.08;96378.72;6158800;28;103288;-46
2022/03/22 03:58:57;;;;;;;10.77;9.87;;;;;;;22.09;23.79;96380.84;6175635;28;102933;-46
2022/03/22 04:01:59;;;;;;;11.80;10.77;;;;;;;22.09;23.99;96388.84;6170532;28;103083;-45
2022/03/22 04:05:01;;;;;;;11.40;10.40;;;;;;;22.12;24.01;96390.16;6174018;28;103168;-46
2022/03/22 04:08:03;;;;;;;12.07;10.97;;;;;;;22.09;24.20;96396.03;6171633;28;103332;-45
2022/03/22 04:11:05;;;;;;;11.97;10.87;;;;;;;22.09;24.20;96391.50;6168801;28;103041;-46
2022/03/22 04:14:07;;;;;;;12.50;11.40;;;;;;;22.02;24.53;96371.50;6160493;28;104435;-45
2022/03/22 04:17:09;;;;;;;12.57;11.37;;;;;;;22.09;24.36;96390.69;6169266;28;103358;-46
2022/03/22 04:20:11;;;;;;;13.43;12.23;;;;;;;22.10;24.77;96393.09;6174018;28;102742;-45
2022/03/22 04:23:13;;;;;;;14.50;13.00;;;;;;;22.10;25.05;96393.09;6183646;28;102807;-46
2022/03/22 04:26:15;;;;;;;13.57;12.37;;;;;;;22.11;25.11;96392.03;6169726;28;102899;-45
2022/03/22 04:32:43;;;;;;;13.67;11.20;;;;;;;22.12;24.63;96384.84;6182025;28;103138;-45
2022/03/22 04:35:45;;;;;;;12.87;11.70;;;;;;;22.06;24.62;96388.56;6176366;28;105639;-46
2022/03/22 04:38:47;;;;;;;12.20;11.17;;;;;;;22.06;24.52;96388.56;6179544;28;102732;-46
2022/03/22 04:41:50;;;;;;;12.30;11.13;;;;;;;22.07;24.62;96414.13;6173383;28;103110;-46
2022/03/22 04:44:51;;;;;;;12.40;11.30;;;;;;;22.08;24.59;96400.53;6177686;28;103380;-46
2022/03/22 04:47:53;;;;;;;13.73;12.43;;;;;;;22.11;24.11;96388.56;6167109;28;103444;-46
2022/03/22 04:57:36;;;;;;;16.13;13.90;;;;;;;21.68;22.81;96395.16;6163178;28;103903;-44
2022/03/22 05:00:38;;;;;;;14.10;12.70;;;;;;;21.72;22.67;96374.94;6190857;28;102801;-46
2022/03/22 05:03:40;;;;;;;16.80;15.13;;;;;;;21.84;22.20;96397.56;6167103;28;103017;-47
2022/03/22 05:06:42;;;;;;;19.50;17.70;;;;;;;21.67;20.73;96385.53;6175548;28;103625;-43
2022/03/22 05:09:44;;;;;;;22.70;20.50;;;;;;;21.49;20.94;96402.78;6181896;28;102715;-44
2022/03/22 05:12:45;;;;;;;18.47;16.77;;;;;;;21.64;21.04;96389.53;6172540;28;102769;-44
2022/03/22 05:15:49;;;;;;;22.43;20.13;;;;;;;21.80;20.19;96371.75;6179373;28;102815;-44
2022/03/22 05:18:52;;;;;;;18.27;16.80;;;;;;;21.85;20.38;96379.75;6180402;28;103556;-44
2022/03/22 05:21:55;;;;;;;18.80;17.13;;;;;;;22.05;20.23;96406.41;6177450;28;102785;-43
2022/03/22 05:24:58;;;;;;;19.00;17.00;;;;;;;22.09;20.00;96370.19;6183371;28;103533;-42
2022/03/22 05:28:03;;;;;;;18.97;17.17;;;;;;;22.19;19.50;96385.38;6183044;28;103003;-42
2022/03/22 05:31:08;;;;;;;18.40;16.70;;;;;;;22.24;20.03;96371.25;6178624;28;102761;-43
2022/03/22 05:34:10;;;;;;;16.87;15.27;;;;;;;22.34;20.25;96393.38;6184076;28;102749;-43
2022/03/22 05:37:13;;;;;;;17.70;16.00;;;;;;;22.41;19.86;96399.22;6184161;28;103000;-43
2022/03/22 05:40:19;;;;;;;16.40;14.80;;;;;;;22.46;20.09;96385.88;6185390;28;102769;-43
2022/03/22 05:43:22;;;;;;;16.90;15.27;;;;;;;22.48;20.13;96381.09;6180521;28;103402;-43
2022/03/22 05:46:24;;;;;;;16.20;14.70;;;;;;;22.52;20.37;96374.16;6185433;28;102961;-43
2022/03/22 05:49:26;;;;;;;16.80;15.27;;;;;;;22.59;20.17;96373.09;6186211;28;103099;-43
2022/03/22 05:52:27;;;;;;;15.37;14.03;;;;;;;22.69;20.02;96373.06;6181790;28;102789;-43
2022/03/22 05:55:29;;;;;;;16.23;14.73;;;;;;;22.77;20.02;96369.84;6185418;28;103102;-43
2022/03/22 05:58:32;;;;;;;15.80;14.40;;;;;;;22.75;20.33;96362.13;6186475;28;103169;-43
2022/03/22 06:01:33;;;;;;;17.87;15.97;;;;;;;22.84;20.01;96364.25;6184735;28;102758;-43
2022/03/22 06:04:36;;;;;;;16.93;15.43;;;;;;;22.85;20.18;96376.53;6180230;28;102804;-43
2022/03/22 06:07:39;;;;;;;15.93;14.53;;;;;;;22.84;20.26;96370.38;6184571;28;103067;-43
2022/03/22 06:10:40;;;;;;;16.10;14.57;;;;;;;22.80;20.25;96367.44;6184940;28;102996;-43
2022/03/22 06:13:42;;;;;;;15.30;13.70;;;;;;;22.81;20.48;96381.53;6185993;28;103269;-43
2022/03/22 06:16:44;;;;;;;15.40;14.07;;;;;;;22.81;20.53;96378.88;6179430;28;102948;-43
2022/03/22 06:19:46;;;;;;;16.40;14.90;;;;;;;22.87;20.59;96371.72;6185807;28;103340;-43
2022/03/22 06:22:48;;;;;;;15.93;14.43;;;;;;;22.83;20.25;96360.00;6185563;28;102800;-43
2022/03/22 06:25:51;;;;;;;15.13;13.80;;;;;;;22.78;20.44;96358.13;6202554;28;103106;-43
2022/03/22 06:28:53;;;;;;;16.10;14.70;;;;;;;22.73;20.69;96356.28;6206807;28;102935;-43
2022/03/22 06:31:55;;;;;;;14.90;13.50;;;;;;;22.73;20.51;96374.13;6207829;28;103153;-43
2022/03/22 06:34:56;;;;;;;15.00;13.60;;;;;;;22.73;20.61;96352.81;6208567;28;102807;-43
2022/03/22 06:37:59;;;;;;;16.60;15.20;;;;;;;22.86;20.42;96356.81;6202741;28;102933;-43
2022/03/22 06:41:03;;;;;;;15.27;13.87;;;;;;;22.94;20.58;96346.38;6208082;28;102812;-43
2022/03/22 06:44:05;;;;;;;16.20;14.53;;;;;;;22.99;20.80;96357.00;6208455;28;102804;-43
2022/03/22 06:47:06;;;;;;;14.93;13.30;;;;;;;23.06;20.50;96357.53;6206477;28;103015;-43
2022/03/22 06:50:11;;;;;;;15.23;13.83;;;;;;;23.06;20.97;96362.84;6204366;28;102841;-42
2022/03/22 06:53:13;;;;;;;15.10;13.70;;;;;;;23.16;20.37;96361.19;6207869;28;102818;-42
2022/03/22 06:56:15;;;;;;;14.30;13.00;;;;;;;23.21;20.59;96346.00;6208317;28;102713;-41
2022/03/22 06:59:17;;;;;;;14.13;12.83;;;;;;;23.20;20.73;96349.72;6203472;28;104975;-41
2022/03/22 07:02:18;;;;;;;13.90;12.70;;;;;;;23.22;21.03;96342.25;6206681;28;102731;-42
2022/03/22 07:05:20;;;;;;;15.93;14.43;;;;;;;23.38;20.49;96345.63;6189932;28;102811;-42
2022/03/22 07:08:23;;;;;;;14.07;12.83;;;;;;;23.44;20.91;96339.19;6207693;28;103371;-42
2022/03/22 07:14:45;;;;;;;13.77;12.57;;;;;;;23.53;20.71;96345.56;6208103;28;102810;-41
2022/03/22 07:17:47;;;;;;;13.27;12.07;;;;;;;23.58;20.46;96350.09;6206963;28;103335;-42
2022/03/22 07:20:49;;;;;;;12.73;11.73;;;;;;;23.55;20.75;96343.41;6202595;28;103243;-42
2022/03/22 07:23:51;;;;;;;13.63;12.40;;;;;;;23.53;20.64;96344.75;6153393;28;1311194;-41
2022/03/22 07:26:53;;;;;;;12.90;11.80;;;;;;;23.55;20.53;96339.94;6184411;28;103013;-42
2022/03/22 07:29:56;;;;;;;13.07;11.87;;;;;;;23.52;20.80;96343.16;6183910;28;102983;-43
2022/03/22 07:32:58;;;;;;;13.30;12.20;;;;;;;23.53;21.18;96340.22;6177998;28;102764;-42
2022/03/22 07:36:00;;;;;;;12.87;11.77;;;;;;;23.60;21.11;96342.59;6184180;28;103106;-43
2022/03/22 07:39:06;;;;;;;12.70;11.53;;;;;;;23.61;20.90;96336.97;6165177;28;102842;-43
2022/03/22 07:42:09;;;;;;;12.33;11.23;;;;;;;23.55;21.23;96327.41;6184379;28;103187;-42
2022/03/22 07:45:11;;;;;;;13.47;12.27;;;;;;;23.39;21.12;96324.03;6177754;28;102866;-43
2022/03/22 07:48:13;;;;;;;12.57;11.47;;;;;;;23.33;21.06;96333.09;6184197;28;102760;-42
2022/03/22 07:54:35;;;;;;;11.40;10.40;;;;;;;23.19;21.35;96332.16;6178200;28;102846;-42
2022/03/22 07:57:37;;;;;;;12.07;11.00;;;;;;;23.15;21.34;96343.59;6184240;28;103278;-42
2022/03/22 08:00:41;;;;;;;12.10;11.00;;;;;;;23.10;21.83;96336.44;6182631;28;102992;-42
2022/03/22 08:03:43;;;;;;;12.03;10.93;;;;;;;23.06;21.53;96333.53;6182676;28;102714;-43
2022/03/22 08:06:45;;;;;;;12.17;11.17;;;;;;;22.98;21.42;96323.41;6177456;28;102812;-43
2022/03/22 08:09:47;;;;;;;11.33;10.33;;;;;;;23.00;21.39;96326.59;6182784;28;103475;-43
2022/03/22 08:12:49;;;;;;;11.93;10.83;;;;;;;22.98;21.42;96330.63;6183988;28;103154;-43
2022/03/22 08:15:51;;;;;;;11.53;10.57;;;;;;;22.95;21.84;96329.31;6177372;28;103274;-43
2022/03/22 08:18:53;;;;;;;11.67;10.60;;;;;;;22.91;21.62;96330.94;6182997;28;103280;-43
2022/03/22 08:21:55;;;;;;;11.17;10.27;;;;;;;22.91;21.87;96330.94;6183050;28;102773;-43
2022/03/22 08:24:57;;;;;;;11.10;10.10;;;;;;;22.88;21.60;96328.81;6200070;28;102848;-43
2022/03/22 08:28:01;;;;;;;11.37;10.37;;;;;;;22.86;21.75;96330.94;6202462;28;102759;-43
2022/03/22 08:31:03;;;;;;;11.50;10.43;;;;;;;22.82;21.84;96335.22;6206937;28;102724;-42
2022/03/22 08:34:05;;;;;;;10.77;9.77;;;;;;;22.84;21.92;96334.94;6207257;28;102738;-42
2022/03/22 08:37:06;;;;;;;10.90;9.90;;;;;;;22.81;22.00;96337.03;6207346;28;103167;-42
2022/03/22 08:40:10;;;;;;;10.00;9.20;;;;;;;22.80;22.03;96329.31;6202270;28;103393;-42
2022/03/22 08:43:11;;;;;;;11.40;10.40;;;;;;;22.78;21.69;96326.94;6207899;28;103267;-42
2022/03/22 08:46:14;;;;;;;10.80;9.80;;;;;;;22.81;21.56;96320.25;6207245;28;102957;-43
2022/03/22 08:49:16;;;;;;;10.83;9.60;;;;;;;22.90;21.82;96325.88;6201009;28;103404;-44
2022/03/22 08:52:17;;;;;;;14.93;13.63;;;;;;;22.84;22.24;96319.75;6207060;28;102903;-42
2022/03/22 08:55:20;;;;;;;14.83;13.43;;;;;;;22.81;22.14;96321.06;6207606;28;102809;-42
2022/03/22 08:58:22;;;;;;;14.53;13.33;;;;;;;22.78;22.41;96318.94;6207255;28;102760;-42
2022/03/22 09:01:25;;;;;;;13.43;12.33;;;;;;;22.78;22.23;96312.81;6201988;28;103325;-42
2022/03/22 09:07:47;;;;;;;14.00;12.80;;;;;;;22.70;22.03;96292.88;6206185;28;102696;-42
2022/03/22 09:10:51;;;;;;;12.80;11.70;;;;;;;22.70;22.19;96284.09;6184574;28;103130;-43
2022/03/22 09:13:54;;;;;;;12.77;11.67;;;;;;;22.72;22.74;96296.06;6206650;28;103298;-43
2022/03/22 09:16:56;;;;;;;13.40;12.20;;;;;;;22.73;22.48;96302.19;6207016;28;102738;-43
2022/03/22 09:20:01;;;;;;;12.20;11.20;;;;;;;22.70;22.19;96300.88;6206917;28;103109;-42
2022/03/22 09:23:02;;;;;;;12.57;11.50;;;;;;;22.69;22.62;96298.47;6198969;28;102740;-43
2022/03/22 09:26:04;;;;;;;12.77;11.77;;;;;;;22.66;22.42;96299.78;6182898;28;102734;-42
2022/03/22 09:29:07;;;;;;;12.60;11.50;;;;;;;22.67;22.17;96305.91;6182430;28;103521;-42
2022/03/22 09:32:09;;;;;;;12.37;11.17;;;;;;;22.65;22.51;96292.06;6182190;28;102696;-42
2022/03/22 09:35:13;;;;;;;12.33;11.33;;;;;;;22.57;22.29;96276.66;6176360;28;104077;-42
2022/03/22 09:38:15;;;;;;;12.27;11.20;;;;;;;22.61;22.40;96275.06;6181746;28;102984;-44
2022/03/22 09:41:18;;;;;;;11.13;10.23;;;;;;;22.56;22.42;96275.06;6182268;28;103224;-42
2022/03/22 09:44:20;;;;;;;11.03;10.13;;;;;;;22.59;22.33;96280.66;6175734;28;103123;-42
2022/03/22 09:47:22;;;;;;;12.10;11.10;;;;;;;22.58;22.74;96284.38;6182279;28;103411;-42
2022/03/22 09:53:45;;;;;;;11.10;10.20;;;;;;;22.57;22.70;96284.66;6181820;28;102742;-42
2022/03/22 09:56:47;;;;;;;11.30;10.47;;;;;;;22.52;22.47;96275.63;6177335;28;103786;-42
2022/03/22 09:59:49;;;;;;;11.13;10.13;;;;;;;22.54;22.56;96270.03;6181387;28;103321;-42
2022/03/22 10:02:51;;;;;;;11.30;10.30;;;;;;;22.54;22.80;96269.22;6184837;28;102705;-42
2022/03/22 10:06:11;;;;;;;10.67;9.70;;;;;;;22.52;22.47;96250.88;6179655;28;103371;-42
2022/03/22 10:09:12;;;;;;;10.50;9.50;;;;;;;22.49;22.66;96241.53;6167618;28;102767;-42
2022/03/22 10:12:34;;;;;;;10.40;9.60;;;;;;;22.48;22.63;96231.94;6167629;28;102859;-42
2022/03/22 10:15:37;;;;;;;10.37;9.47;;;;;;;22.52;22.87;96241.00;6185462;28;103318;-42
2022/03/22 10:18:39;;;;;;;10.90;10.00;;;;;;;22.51;22.89;96242.06;6180593;28;103347;-42
2022/03/22 10:21:45;;;;;;;11.27;10.30;;;;;;;22.48;22.82;96233.81;6185068;28;102782;-42
2022/03/22 10:24:50;;;;;;;10.17;9.30;;;;;;;22.52;22.48;96234.88;6200152;28;102819;-42
2022/03/22 10:27:56;;;;;;;10.40;9.50;;;;;;;22.52;22.70;96241.00;6205101;28;103265;-42
2022/03/22 10:31:00;;;;;;;9.40;8.60;;;;;;;22.50;22.38;96227.13;6209926;28;102711;-42
2022/03/22 10:34:02;;;;;;;9.10;8.30;;;;;;;22.54;22.54;96237.28;6210043;28;102836;-42
2022/03/22 10:37:04;;;;;;;10.47;9.53;;;;;;;22.56;22.68;96227.94;6209694;28;103081;-42
2022/03/22 10:40:33;;;;;;;9.63;8.83;;;;;;;22.61;22.43;96219.91;6204435;28;104875;-42
2022/03/22 10:43:36;;;;;;;9.87;9.07;;;;;;;22.66;22.93;96219.88;6209346;28;102723;-42
2022/03/22 10:46:38;;;;;;;9.40;8.60;;;;;;;22.68;22.67;96203.66;6210094;28;103067;-42
2022/03/22 10:49:40;;;;;;;8.23;7.63;;;;;;;22.71;22.35;96208.41;6204494;28;103029;-42
2022/03/22 10:52:59;;;;;;;9.30;8.50;;;;;;;22.71;22.74;96187.09;6209728;28;103696;-42
2022/03/22 10:56:02;;;;;;;9.67;8.87;;;;;;;22.75;22.66;96191.59;6209706;28;103198;-42
2022/03/22 10:59:05;;;;;;;8.90;8.20;;;;;;;22.77;22.88;96194.78;6209793;28;103125;-42
2022/03/22 11:02:07;;;;;;;9.10;8.40;;;;;;;22.79;22.64;96189.19;6185552;28;102831;-42
2022/03/22 11:05:10;;;;;;;9.90;9.10;;;;;;;22.83;22.82;96192.91;6209317;28;102957;-42
2022/03/22 11:08:12;;;;;;;9.10;8.30;;;;;;;22.79;22.69;96183.84;6208622;28;103426;-42
2022/03/22 11:11:14;;;;;;;8.57;7.87;;;;;;;22.83;22.68;96179.59;6209173;28;102715;-42
2022/03/22 11:14:17;;;;;;;9.20;8.43;;;;;;;22.81;22.57;96179.03;6202081;28;102697;-41
2022/03/22 11:17:19;;;;;;;9.50;8.70;;;;;;;22.80;22.79;96186.25;6191617;28;103438;-41
2022/03/22 11:20:25;;;;;;;8.67;7.97;;;;;;;22.79;22.46;96178.53;6209166;28;103100;-42
2022/03/22 11:23:32;;;;;;;8.70;8.00;;;;;;;22.80;22.79;96164.91;6197238;28;102802;-42
2022/03/22 11:26:47;;;;;;;9.40;8.70;;;;;;;22.75;22.64;96158.84;6184616;28;102843;-42
2022/03/22 11:29:49;;;;;;;8.53;7.83;;;;;;;22.79;22.51;96151.88;6184817;28;102814;-42
2022/03/22 11:36:24;;;;;;;8.23;7.60;;;;;;;22.71;22.71;96123.97;6179553;28;104621;-42
2022/03/22 11:42:56;;;;;;;7.87;7.27;;;;;;;22.70;22.79;96122.38;6183099;28;103204;-42
2022/03/22 11:45:58;;;;;;;8.37;7.67;;;;;;;22.74;22.74;96130.59;6161006;28;103217;-42
2022/03/22 11:49:21;;;;;;;8.10;7.40;;;;;;;22.73;22.78;96121.03;6183248;28;102719;-42
2022/03/22 11:52:37;;;;;;;8.40;7.60;;;;;;;22.72;23.04;96116.78;6184166;28;103441;-43
2022/03/22 11:55:40;;;;;;;8.57;7.83;;;;;;;22.63;22.77;96107.75;6181096;28;103188;-43
2022/03/22 11:58:51;;;;;;;8.70;7.90;;;;;;;22.70;22.86;96113.59;6181785;28;102722;-42
2022/03/22 12:02:05;;;;;;;7.30;6.70;;;;;;;22.69;22.61;96110.13;6183909;28;102730;-42
2022/03/22 12:05:07;;;;;;;7.33;6.73;;;;;;;22.68;22.78;96094.44;6183692;28;103301;-42
2022/03/22 12:08:13;;;;;;;8.17;7.37;;;;;;;22.68;22.83;96089.91;6177807;28;102723;-43
2022/03/22 12:11:16;;;;;;;7.73;6.97;;;;;;;22.67;22.72;96082.94;6181903;28;102750;-42
2022/03/22 12:14:26;;;;;;;7.90;7.20;;;;;;;22.68;22.89;96081.09;6165290;28;103214;-43
2022/03/22 12:17:29;;;;;;;8.20;7.50;;;;;;;22.67;22.97;96079.50;6183873;28;103218;-43
2022/03/22 12:20:31;;;;;;;7.67;7.07;;;;;;;22.67;22.97;96074.16;6177828;28;103021;-43
2022/03/22 12:23:33;;;;;;;7.30;6.70;;;;;;;22.61;23.12;96073.41;6187590;28;102860;-43
2022/03/22 12:26:36;;;;;;;7.60;7.00;;;;;;;22.66;23.05;96077.91;6207384;28;102767;-42
2022/03/22 12:29:42;;;;;;;7.37;6.77;;;;;;;22.64;22.91;96070.19;6202302;28;103564;-43
2022/03/22 12:32:44;;;;;;;6.80;6.30;;;;;;;22.64;22.75;96064.84;6208396;28;103149;-42
2022/03/22 12:35:48;;;;;;;7.30;6.60;;;;;;;22.65;22.74;96053.13;6207512;28;103183;-43
2022/03/22 12:38:50;;;;;;;6.90;6.30;;;;;;;22.61;22.62;96043.31;6208307;28;103439;-43
2022/03/22 12:41:52;;;;;;;7.50;6.90;;;;;;;22.64;22.94;96046.22;6200941;28;102760;-43
2022/03/22 12:44:54;;;;;;;7.50;6.90;;;;;;;22.65;22.73;96052.34;6206832;28;102707;-43
2022/03/22 12:48:07;;;;;;;7.20;6.60;;;;;;;22.63;23.28;96046.50;6208015;28;103473;-42
2022/03/22 12:51:10;;;;;;;6.73;6.23;;;;;;;22.62;22.69;96051.03;6202151;28;102790;-45
2022/03/22 12:54:16;;;;;;;7.07;6.47;;;;;;;22.63;22.92;96049.16;6206998;28;102990;-43
2022/03/22 12:57:18;;;;;;;6.47;5.97;;;;;;;22.62;22.77;96045.69;6206892;28;102850;-42
2022/03/22 13:00:27;;;;;;;7.37;6.77;;;;;;;22.60;22.99;96039.84;6207468;28;102815;-42
2022/03/22 13:03:30;;;;;;;6.87;6.37;;;;;;;22.60;23.16;96039.84;6201671;28;102715;-42
2022/03/22 13:06:33;;;;;;;6.63;6.13;;;;;;;22.61;22.68;96043.31;6207357;28;103302;-42
2022/03/22 13:12:55;;;;;;;6.97;6.40;;;;;;;22.59;22.88;96040.13;6200641;28;102817;-42
2022/03/22 13:15:58;;;;;;;6.87;6.37;;;;;;;22.59;22.94;96040.13;6206715;28;102761;-42
2022/03/22 13:19:01;;;;;;;7.17;6.57;;;;;;;22.56;22.96;96038.03;6206775;28;102865;-42
2022/03/22 13:22:03;;;;;;;7.00;6.40;;;;;;;22.57;23.08;96045.75;6206967;28;103321;-42
2022/03/22 13:25:10;;;;;;;6.60;6.00;;;;;;;22.57;22.96;96042.28;6164559;28;103297;-42
2022/03/22 13:28:14;;;;;;;6.33;5.83;;;;;;;22.54;22.75;96030.31;6182158;28;102710;-42
2022/03/22 13:31:24;;;;;;;6.83;6.23;;;;;;;22.54;22.84;96027.66;6181886;28;102726;-42
2022/03/22 13:34:28;;;;;;;6.53;6.00;;;;;;;22.52;23.06;96022.63;6181457;28;102770;-42
2022/03/22 13:37:51;;;;;;;7.00;6.40;;;;;;;22.54;23.21;96013.56;6179886;28;103543;-42
2022/03/22 13:40:57;;;;;;;6.37;5.87;;;;;;;22.47;22.88;96004.00;6186547;28;102755;-42
2022/03/22 13:43:59;;;;;;;6.47;5.97;;;;;;;22.50;23.06;96014.09;6167428;28;102890;-42
2022/03/22 13:47:00;;;;;;;6.00;5.50;;;;;;;22.52;23.06;95995.19;6180088;28;102736;-42
2022/03/22 13:50:12;;;;;;;6.83;6.30;;;;;;;22.51;23.11;95994.41;6185608;28;102843;-42
2022/03/22 13:53:25;;;;;;;6.13;5.63;;;;;;;22.50;23.03;95987.44;6186297;28;102698;-42
2022/03/22 13:56:28;;;;;;;6.77;6.27;;;;;;;22.51;23.15;95981.09;6185584;28;102718;-42
2022/03/22 13:59:37;;;;;;;6.10;5.60;;;;;;;22.50;23.01;95986.66;6180824;28;102734;-42
2022/03/22 14:02:39;;;;;;;5.77;5.37;;;;;;;22.46;23.18;95975.78;6185861;28;102624;-42
2022/03/22 14:05:43;;;;;;;6.47;5.97;;;;;;;22.50;22.86;95979.47;6185646;28;102741;-42
2022/03/22 14:08:45;;;;;;;6.27;5.77;;;;;;;22.44;22.81;95977.94;6180366;28;102797;-42
2022/03/22 14:11:47;;;;;;;7.07;6.37;;;;;;;22.49;23.23;95979.75;6185362;28;102774;-42
2022/03/22 14:14:49;;;;;;;6.10;5.50;;;;;;;22.45;23.09;95979.50;6185259;28;103087;-43
2022/03/22 14:17:51;;;;;;;6.90;6.30;;;;;;;22.49;23.09;95980.53;6185560;28;103217;-42
2022/03/22 14:20:54;;;;;;;6.43;5.93;;;;;;;22.49;23.05;95979.75;6179877;28;102726;-42
2022/03/22 14:23:56;;;;;;;6.00;5.53;;;;;;;22.48;23.03;95964.84;6193550;28;102737;-43
2022/03/22 14:26:59;;;;;;;5.40;5.00;;;;;;;22.47;22.91;95971.25;6209723;28;103038;-42
2022/03/22 14:30:04;;;;;;;5.47;5.07;;;;;;;22.46;23.30;95970.44;6205220;28;102918;-42
2022/03/22 14:33:09;;;;;;;6.40;5.90;;;;;;;22.48;23.05;95959.50;6209309;28;102858;-42
2022/03/22 14:36:11;;;;;;;6.17;5.67;;;;;;;22.47;23.12;95949.94;6210976;28;103217;-42
2022/03/22 14:39:12;;;;;;;5.97;5.47;;;;;;;22.48;23.12;95965.63;6209764;28;102658;-42
2022/03/22 14:42:14;;;;;;;6.07;5.57;;;;;;;22.46;23.14;95967.78;6204406;28;102652;-42